createdAt,value
2018-12-18T00:00:21.668Z,74.66
2018-12-18T00:01:21.555Z,74.66
2018-12-18T00:02:21.455Z,74.09
2018-12-18T00:03:21.345Z,73.99
2018-12-18T00:04:21.236Z,74.03
2018-12-18T00:05:21.132Z,74.47
2018-12-18T00:06:21.022Z,74.18
2018-12-18T00:07:20.915Z,73.90
2018-12-18T00:08:20.809Z,73.56
2018-12-18T00:09:20.703Z,74.79
2018-12-18T00:10:20.599Z,74.60
2018-12-18T00:11:20.489Z,74.98
2018-12-18T00:12:20.386Z,74.88
2018-12-18T00:13:20.275Z,74.79
2018-12-18T00:14:20.168Z,75.26
2018-12-18T00:15:20.063Z,75.36
2018-12-18T00:16:19.954Z,75.55
2018-12-18T00:17:19.902Z,75.93
2018-12-18T00:18:19.743Z,75.84
2018-12-18T00:19:19.635Z,77.16
2018-12-18T00:20:19.528Z,77.06
2018-12-18T00:21:19.421Z,76.50
2018-12-18T00:22:19.317Z,76.12
2018-12-18T00:23:19.217Z,75.64
2018-12-18T00:24:19.107Z,75.74
2018-12-18T00:25:19.007Z,75.45
2018-12-18T00:26:18.907Z,74.69
2018-12-18T00:27:18.782Z,72.89
2018-12-18T00:28:18.689Z,72.80
2018-12-18T00:29:18.571Z,72.52
2018-12-18T00:30:18.471Z,71.85
2018-12-18T00:31:18.360Z,71.95
2018-12-18T00:32:18.250Z,71.00
2018-12-18T00:33:18.148Z,70.62
2018-12-18T00:34:18.036Z,69.96
2018-12-18T00:35:17.953Z,69.67
2018-12-18T00:36:17.825Z,69.57
2018-12-18T00:37:17.726Z,69.57
2018-12-18T00:38:17.614Z,70.05
2018-12-18T00:39:17.508Z,70.24
2018-12-18T00:40:17.397Z,70.24
2018-12-18T00:41:17.292Z,69.67
2018-12-18T00:42:17.192Z,70.62
2018-12-18T00:43:17.083Z,70.43
2018-12-18T00:44:16.979Z,70.72
2018-12-18T00:45:16.871Z,71.09
2018-12-18T00:46:16.768Z,70.72
2018-12-18T00:47:16.659Z,71.09
2018-12-18T00:48:16.558Z,71.47
2018-12-18T00:49:16.440Z,71.09
2018-12-18T00:50:16.335Z,71.00
2018-12-18T00:51:16.233Z,70.72
2018-12-18T00:52:16.120Z,71.28
2018-12-18T00:53:16.024Z,70.81
2018-12-18T00:54:15.908Z,71.57
2018-12-18T00:55:15.810Z,71.19
2018-12-18T00:56:15.699Z,71.66
2018-12-18T00:57:15.589Z,70.90
2018-12-18T00:58:15.483Z,71.09
2018-12-18T00:59:15.379Z,71.95
2018-12-18T01:00:15.281Z,71.09
2018-12-18T01:01:15.165Z,71.00
2018-12-18T01:02:15.056Z,71.95
2018-12-18T01:03:14.953Z,71.85
2018-12-18T01:04:14.843Z,71.76
2018-12-18T01:05:14.741Z,71.57
2018-12-18T01:06:14.632Z,71.95
2018-12-18T01:07:14.530Z,72.23
2018-12-18T01:08:14.419Z,72.04
2018-12-18T01:09:14.322Z,72.89
2018-12-18T01:10:14.207Z,72.42
2018-12-18T01:11:14.108Z,72.71
2018-12-18T01:12:13.996Z,72.99
2018-12-18T01:13:13.896Z,73.46
2018-12-18T01:14:13.780Z,72.80
2018-12-18T01:15:13.674Z,72.89
2018-12-18T01:16:13.571Z,73.27
2018-12-18T01:17:13.461Z,73.56
2018-12-18T01:18:13.355Z,73.46
2018-12-18T01:19:13.248Z,73.18
2018-12-18T01:20:13.150Z,73.37
2018-12-18T01:21:13.036Z,72.99
2018-12-18T01:22:12.940Z,72.71
2018-12-18T01:23:12.827Z,73.37
2018-12-18T01:24:12.741Z,73.08
2018-12-18T01:25:12.619Z,72.80
2018-12-18T01:26:12.505Z,72.61
2018-12-18T01:27:12.408Z,72.23
2018-12-18T01:28:12.294Z,72.04
2018-12-18T01:29:12.194Z,72.33
2018-12-18T01:30:12.083Z,72.42
2018-12-18T01:31:11.981Z,72.04
2018-12-18T01:32:11.871Z,71.85
2018-12-18T01:33:11.771Z,71.85
2018-12-18T01:34:11.658Z,72.23
2018-12-18T01:35:11.560Z,73.27
2018-12-18T01:36:11.448Z,73.84
2018-12-18T01:37:11.336Z,73.84
2018-12-18T01:38:11.230Z,73.65
2018-12-18T01:39:11.123Z,73.65
2018-12-18T01:40:11.017Z,73.84
2018-12-18T01:41:10.911Z,73.18
2018-12-18T01:42:10.805Z,73.65
2018-12-18T01:43:10.700Z,73.65
2018-12-18T01:44:10.592Z,74.60
2018-12-18T01:45:10.489Z,74.69
2018-12-18T01:46:10.380Z,74.51
2018-12-18T01:47:10.274Z,74.79
2018-12-18T01:48:10.168Z,74.69
2018-12-18T01:49:10.067Z,74.69
2018-12-18T01:50:09.959Z,74.60
2018-12-18T01:51:09.850Z,74.69
2018-12-18T01:52:09.743Z,74.51
2018-12-18T01:53:09.645Z,74.51
2018-12-18T01:54:09.535Z,74.88
2018-12-18T01:55:09.435Z,73.75
2018-12-18T01:56:09.318Z,74.51
2018-12-18T01:57:09.222Z,75.07
2018-12-18T01:58:09.112Z,74.60
2018-12-18T01:59:09.015Z,74.22
2018-12-18T02:00:08.898Z,73.84
2018-12-18T02:01:08.799Z,73.56
2018-12-18T02:02:08.691Z,74.13
2018-12-18T02:03:08.876Z,73.84
2018-12-18T02:04:08.476Z,73.56
2018-12-18T02:05:08.366Z,73.84
2018-12-18T02:06:08.258Z,73.75
2018-12-18T02:07:08.152Z,74.64
2018-12-18T02:08:08.053Z,74.51
2018-12-18T02:09:07.940Z,74.41
2018-12-18T02:10:07.842Z,74.88
2018-12-18T02:11:07.730Z,75.11
2018-12-18T02:12:07.621Z,75.31
2018-12-18T02:13:07.515Z,75.40
2018-12-18T02:14:07.409Z,75.78
2018-12-18T02:15:07.311Z,74.98
2018-12-18T02:16:07.207Z,74.73
2018-12-18T02:17:07.096Z,74.88
2018-12-18T02:18:06.985Z,74.64
2018-12-18T02:19:06.879Z,74.92
2018-12-18T02:20:06.773Z,75.17
2018-12-18T02:21:06.673Z,74.92
2018-12-18T02:22:06.562Z,75.49
2018-12-18T02:23:06.461Z,75.84
2018-12-18T02:24:06.350Z,75.87
2018-12-18T02:25:06.252Z,75.59
2018-12-18T02:26:06.142Z,75.11
2018-12-18T02:27:06.040Z,75.68
2018-12-18T02:28:05.924Z,75.31
2018-12-18T02:29:05.819Z,75.17
2018-12-18T02:30:05.715Z,74.41
2018-12-18T02:31:05.608Z,74.13
2018-12-18T02:32:05.500Z,72.14
2018-12-18T02:33:05.401Z,70.84
2018-12-18T02:34:05.293Z,71.47
2018-12-18T02:35:05.195Z,71.70
2018-12-18T02:36:05.085Z,69.52
2018-12-18T02:37:04.973Z,68.76
2018-12-18T02:38:04.870Z,68.95
2018-12-18T02:39:04.759Z,69.13
2018-12-18T02:40:04.661Z,70.09
2018-12-18T02:41:04.553Z,70.84
2018-12-18T02:42:04.458Z,69.71
2018-12-18T02:43:04.338Z,68.10
2018-12-18T02:44:04.233Z,67.81
2018-12-18T02:45:04.127Z,67.02
2018-12-18T02:46:04.018Z,67.40
2018-12-18T02:47:03.911Z,67.81
2018-12-18T02:48:03.804Z,66.83
2018-12-18T02:49:03.701Z,66.83
2018-12-18T02:50:03.604Z,67.21
2018-12-18T02:51:03.492Z,67.21
2018-12-18T02:52:03.396Z,66.26
2018-12-18T02:53:03.278Z,66.07
2018-12-18T02:54:03.171Z,65.25
2018-12-18T02:55:03.063Z,66.54
2018-12-18T02:56:02.957Z,65.97
2018-12-18T02:57:02.856Z,66.16
2018-12-18T02:58:02.996Z,65.78
2018-12-18T02:59:02.639Z,65.59
2018-12-18T03:00:02.536Z,65.88
2018-12-18T03:01:02.435Z,64.93
2018-12-18T03:02:02.325Z,65.22
2018-12-18T03:03:02.223Z,64.78
2018-12-18T03:04:02.108Z,65.06
2018-12-18T03:05:02.004Z,65.31
2018-12-18T03:06:01.902Z,65.50
2018-12-18T03:07:01.804Z,65.50
2018-12-18T03:08:01.688Z,66.01
2018-12-18T03:09:01.587Z,65.69
2018-12-18T03:10:01.478Z,65.91
2018-12-18T03:11:01.385Z,66.58
2018-12-18T03:12:01.261Z,66.86
2018-12-18T03:13:01.155Z,66.77
2018-12-18T03:14:01.049Z,66.86
2018-12-18T03:15:00.942Z,66.48
2018-12-18T03:16:00.843Z,66.96
2018-12-18T03:17:00.732Z,66.96
2018-12-18T03:18:00.631Z,66.83
2018-12-18T03:19:00.518Z,66.45
2018-12-18T03:20:00.420Z,65.88
2018-12-18T03:21:00.308Z,65.53
2018-12-18T03:22:00.202Z,65.82
2018-12-18T03:23:00.096Z,65.82
2018-12-18T03:23:59.996Z,65.82
2018-12-18T03:24:59.885Z,66.77
2018-12-18T03:25:59.777Z,66.39
2018-12-18T03:26:59.673Z,65.72
2018-12-18T03:27:59.567Z,65.63
2018-12-18T03:28:59.457Z,65.63
2018-12-18T03:29:59.351Z,65.16
2018-12-18T03:30:59.252Z,66.20
2018-12-18T03:31:59.142Z,65.72
2018-12-18T03:32:59.034Z,65.44
2018-12-18T03:33:58.926Z,65.44
2018-12-18T03:34:58.828Z,65.25
2018-12-18T03:35:58.716Z,65.53
2018-12-18T03:36:58.608Z,65.72
2018-12-18T03:37:58.751Z,65.44
2018-12-18T03:38:58.395Z,65.25
2018-12-18T03:39:58.289Z,65.53
2018-12-18T03:40:58.185Z,65.53
2018-12-18T03:41:58.077Z,65.53
2018-12-18T03:42:57.971Z,65.53
2018-12-18T03:43:57.866Z,65.16
2018-12-18T03:44:57.758Z,64.40
2018-12-18T03:45:57.652Z,63.73
2018-12-18T03:46:57.546Z,63.73
2018-12-18T03:47:57.441Z,63.35
2018-12-18T03:48:57.335Z,62.88
2018-12-18T03:49:57.237Z,62.40
2018-12-18T03:50:57.126Z,62.40
2018-12-18T03:51:57.026Z,62.12
2018-12-18T03:52:56.912Z,62.12
2018-12-18T03:53:56.814Z,61.55
2018-12-18T03:54:56.702Z,60.70
2018-12-18T03:55:56.591Z,60.41
2018-12-18T03:56:56.490Z,60.60
2018-12-18T03:57:56.377Z,59.94
2018-12-18T03:58:56.272Z,60.50
2018-12-18T03:59:56.166Z,60.41
2018-12-18T04:00:56.058Z,59.94
2018-12-18T04:01:55.955Z,60.13
2018-12-18T04:02:55.857Z,60.76
2018-12-18T04:03:55.743Z,60.70
2018-12-18T04:04:55.645Z,59.91
2018-12-18T04:05:55.536Z,60.28
2018-12-18T04:06:55.421Z,59.91
2018-12-18T04:07:55.316Z,59.94
2018-12-18T04:08:55.208Z,60.00
2018-12-18T04:09:55.112Z,59.37
2018-12-18T04:10:54.998Z,59.81
2018-12-18T04:11:54.899Z,60.31
2018-12-18T04:12:54.790Z,60.10
2018-12-18T04:13:54.688Z,59.81
2018-12-18T04:14:54.576Z,59.46
2018-12-18T04:15:54.486Z,59.18
2018-12-18T04:16:54.365Z,59.27
2018-12-18T04:17:54.257Z,59.66
2018-12-18T04:18:54.153Z,59.66
2018-12-18T04:19:54.044Z,59.72
2018-12-18T04:20:53.944Z,59.91
2018-12-18T04:21:53.829Z,59.53
2018-12-18T04:22:53.729Z,59.25
2018-12-18T04:23:53.618Z,59.25
2018-12-18T04:24:53.519Z,59.75
2018-12-18T04:25:53.404Z,59.75
2018-12-18T04:26:53.297Z,59.72
2018-12-18T04:27:53.190Z,59.63
2018-12-18T04:28:53.086Z,59.44
2018-12-18T04:29:52.991Z,59.66
2018-12-18T04:30:52.877Z,59.18
2018-12-18T04:31:52.767Z,59.18
2018-12-18T04:32:52.660Z,59.56
2018-12-18T04:33:52.554Z,59.27
2018-12-18T04:34:52.448Z,59.72
2018-12-18T04:35:52.342Z,59.56
2018-12-18T04:36:52.237Z,59.46
2018-12-18T04:37:52.140Z,59.37
2018-12-18T04:38:52.028Z,59.15
2018-12-18T04:39:51.929Z,59.37
2018-12-18T04:40:51.816Z,59.34
2018-12-18T04:41:51.716Z,59.34
2018-12-18T04:42:51.611Z,59.53
2018-12-18T04:43:51.495Z,59.46
2018-12-18T04:44:51.395Z,59.53
2018-12-18T04:45:51.281Z,59.34
2018-12-18T04:46:51.175Z,59.34
2018-12-18T04:47:51.071Z,59.75
2018-12-18T04:48:50.973Z,59.27
2018-12-18T04:49:50.861Z,59.56
2018-12-18T04:50:50.753Z,59.81
2018-12-18T04:51:50.758Z,59.75
2018-12-18T04:52:50.548Z,59.66
2018-12-18T04:53:50.436Z,59.25
2018-12-18T04:54:50.340Z,59.18
2018-12-18T04:55:50.222Z,59.75
2018-12-18T04:56:50.112Z,59.75
2018-12-18T04:57:50.013Z,59.81
2018-12-18T04:58:49.902Z,59.56
2018-12-18T04:59:49.793Z,59.46
2018-12-18T05:00:49.690Z,59.25
2018-12-18T05:01:49.581Z,59.25
2018-12-18T05:02:49.726Z,59.53
2018-12-18T05:03:49.369Z,59.84
2018-12-18T05:04:50.447Z,59.46
2018-12-18T05:05:49.156Z,59.27
2018-12-18T05:06:49.055Z,59.37
2018-12-18T05:07:48.943Z,60.00
2018-12-18T05:08:48.845Z,59.84
2018-12-18T05:09:48.732Z,60.13
2018-12-18T05:10:48.632Z,60.10
2018-12-18T05:11:48.521Z,59.75
2018-12-18T05:12:48.412Z,60.03
2018-12-18T05:13:48.306Z,59.63
2018-12-18T05:14:48.200Z,60.31
2018-12-18T05:15:48.092Z,60.38
2018-12-18T05:16:47.987Z,60.19
2018-12-18T05:17:47.886Z,60.10
2018-12-18T05:18:47.777Z,60.28
2018-12-18T05:19:47.675Z,60.00
2018-12-18T05:20:47.563Z,60.28
2018-12-18T05:21:47.463Z,60.00
2018-12-18T05:22:47.356Z,60.47
2018-12-18T05:23:47.256Z,60.28
2018-12-18T05:24:47.140Z,60.28
2018-12-18T05:25:47.029Z,60.19
2018-12-18T05:26:46.974Z,60.19
2018-12-18T05:27:46.817Z,60.10
2018-12-18T05:28:46.711Z,60.00
2018-12-18T05:29:46.603Z,60.00
2018-12-18T05:30:46.498Z,60.47
2018-12-18T05:31:46.391Z,60.19
2018-12-18T05:32:46.295Z,60.47
2018-12-18T05:33:46.183Z,60.10
2018-12-18T05:34:46.071Z,60.38
2018-12-18T05:35:45.972Z,60.19
2018-12-18T05:36:45.860Z,60.19
2018-12-18T05:37:45.762Z,60.47
2018-12-18T05:38:45.651Z,60.03
2018-12-18T05:39:45.550Z,60.00
2018-12-18T05:40:45.438Z,60.47
2018-12-18T05:41:45.325Z,60.03
2018-12-18T05:42:45.226Z,59.94
2018-12-18T05:43:45.175Z,60.10
2018-12-18T05:44:45.008Z,60.10
2018-12-18T05:45:44.902Z,60.38
2018-12-18T05:46:44.793Z,60.86
2018-12-18T05:47:44.685Z,60.67
2018-12-18T05:48:44.579Z,61.27
2018-12-18T05:49:44.481Z,61.05
2018-12-18T05:50:44.369Z,61.27
2018-12-18T05:51:44.269Z,60.89
2018-12-18T05:52:44.157Z,61.14
2018-12-18T05:53:44.057Z,61.17
2018-12-18T05:54:43.946Z,60.95
2018-12-18T05:55:43.834Z,61.36
2018-12-18T05:56:43.727Z,61.71
2018-12-18T05:57:43.620Z,61.17
2018-12-18T05:58:43.527Z,61.83
2018-12-18T05:59:43.411Z,61.74
2018-12-18T06:00:43.311Z,61.55
2018-12-18T06:01:43.201Z,62.12
2018-12-18T06:02:43.089Z,62.31
2018-12-18T06:03:42.988Z,61.99
2018-12-18T06:04:42.877Z,62.12
2018-12-18T06:05:42.777Z,62.31
2018-12-18T06:06:42.664Z,62.31
2018-12-18T06:07:42.565Z,62.69
2018-12-18T06:08:42.455Z,62.88
2018-12-18T06:09:42.342Z,62.59
2018-12-18T06:10:42.242Z,62.50
2018-12-18T06:11:42.128Z,62.50
2018-12-18T06:12:42.033Z,62.50
2018-12-18T06:13:41.918Z,62.40
2018-12-18T06:14:41.820Z,62.69
2018-12-18T06:15:41.709Z,62.31
2018-12-18T06:16:41.596Z,63.07
2018-12-18T06:17:41.745Z,62.97
2018-12-18T06:18:41.406Z,63.45
2018-12-18T06:19:41.286Z,63.54
2018-12-18T06:20:41.170Z,63.73
2018-12-18T06:21:41.077Z,63.26
2018-12-18T06:22:40.961Z,63.64
2018-12-18T06:23:40.850Z,63.82
2018-12-18T06:24:40.758Z,63.82
2018-12-18T06:25:40.638Z,63.54
2018-12-18T06:26:40.539Z,63.82
2018-12-18T06:27:40.426Z,63.73
2018-12-18T06:28:40.327Z,63.73
2018-12-18T06:29:40.215Z,63.64
2018-12-18T06:30:40.116Z,63.64
2018-12-18T06:31:40.010Z,63.73
2018-12-18T06:32:39.896Z,63.35
2018-12-18T06:33:39.793Z,63.64
2018-12-18T06:34:39.694Z,64.11
2018-12-18T06:35:39.595Z,64.11
2018-12-18T06:36:39.498Z,64.49
2018-12-18T06:37:39.361Z,64.40
2018-12-18T06:38:39.257Z,64.97
2018-12-18T06:39:39.149Z,64.97
2018-12-18T06:40:39.041Z,64.87
2018-12-18T06:41:38.933Z,64.97
2018-12-18T06:42:38.835Z,64.78
2018-12-18T06:43:38.723Z,64.87
2018-12-18T06:44:38.624Z,64.87
2018-12-18T06:45:38.511Z,64.59
2018-12-18T06:46:38.415Z,64.78
2018-12-18T06:47:38.302Z,65.06
2018-12-18T06:48:38.188Z,64.97
2018-12-18T06:49:38.089Z,64.97
2018-12-18T06:50:37.976Z,64.78
2018-12-18T06:51:37.871Z,64.97
2018-12-18T06:52:37.767Z,65.06
2018-12-18T06:53:37.665Z,64.59
2018-12-18T06:54:37.554Z,65.25
2018-12-18T06:55:37.443Z,64.87
2018-12-18T06:56:37.343Z,64.49
2018-12-18T06:57:37.232Z,65.16
2018-12-18T06:58:37.131Z,64.97
2018-12-18T06:59:37.021Z,64.87
2018-12-18T07:00:36.919Z,64.97
2018-12-18T07:01:36.809Z,64.78
2018-12-18T07:02:36.713Z,64.97
2018-12-18T07:03:36.591Z,65.16
2018-12-18T07:04:36.485Z,64.87
2018-12-18T07:05:36.389Z,64.87
2018-12-18T07:06:36.274Z,65.06
2018-12-18T07:07:36.174Z,65.06
2018-12-18T07:08:36.062Z,65.25
2018-12-18T07:09:35.963Z,65.06
2018-12-18T07:10:35.851Z,64.87
2018-12-18T07:11:35.740Z,65.25
2018-12-18T07:12:35.634Z,64.78
2018-12-18T07:13:35.527Z,64.97
2018-12-18T07:14:35.427Z,64.97
2018-12-18T07:15:35.317Z,65.34
2018-12-18T07:16:35.220Z,65.72
2018-12-18T07:17:35.102Z,65.72
2018-12-18T07:18:35.001Z,65.06
2018-12-18T07:19:34.893Z,65.16
2018-12-18T07:20:34.782Z,65.06
2018-12-18T07:21:34.677Z,64.97
2018-12-18T07:22:34.570Z,65.25
2018-12-18T07:23:34.471Z,65.82
2018-12-18T07:24:34.358Z,65.34
2018-12-18T07:25:34.259Z,64.97
2018-12-18T07:26:34.147Z,65.06
2018-12-18T07:27:34.048Z,65.25
2018-12-18T07:28:33.935Z,65.72
2018-12-18T07:29:33.828Z,65.72
2018-12-18T07:30:33.719Z,65.82
2018-12-18T07:31:33.612Z,65.82
2018-12-18T07:32:33.513Z,65.72
2018-12-18T07:33:33.403Z,66.29
2018-12-18T07:34:33.467Z,66.58
2018-12-18T07:35:33.187Z,66.29
2018-12-18T07:36:33.090Z,66.29
2018-12-18T07:37:32.979Z,66.86
2018-12-18T07:38:32.942Z,67.62
2018-12-18T07:39:32.767Z,67.14
2018-12-18T07:40:32.656Z,67.62
2018-12-18T07:41:32.606Z,67.71
2018-12-18T07:42:32.444Z,67.52
2018-12-18T07:43:32.345Z,68.48
2018-12-18T07:44:32.294Z,68.10
2018-12-18T07:45:32.137Z,68.66
2018-12-18T07:46:32.021Z,68.48
2018-12-18T07:47:31.935Z,68.76
2018-12-18T07:48:31.811Z,68.48
2018-12-18T07:49:31.703Z,68.85
2018-12-18T07:50:31.598Z,68.95
2018-12-18T07:51:31.499Z,69.42
2018-12-18T07:52:31.390Z,69.42
2018-12-18T07:53:31.277Z,69.33
2018-12-18T07:54:31.176Z,69.13
2018-12-18T07:55:31.064Z,69.33
2018-12-18T07:56:30.964Z,69.23
2018-12-18T07:57:30.852Z,69.23
2018-12-18T07:58:30.753Z,69.04
2018-12-18T07:59:30.642Z,69.61
2018-12-18T08:00:30.533Z,69.52
2018-12-18T08:01:30.428Z,69.13
2018-12-18T08:02:30.330Z,69.13
2018-12-18T08:03:30.219Z,69.61
2018-12-18T08:04:30.119Z,69.23
2018-12-18T08:05:30.178Z,69.04
2018-12-18T08:06:29.907Z,69.61
2018-12-18T08:07:29.797Z,69.42
2018-12-18T08:08:29.685Z,69.33
2018-12-18T08:09:29.584Z,69.33
2018-12-18T08:10:29.474Z,69.33
2018-12-18T08:11:29.376Z,69.04
2018-12-18T08:12:29.262Z,69.13
2018-12-18T08:13:29.153Z,69.13
2018-12-18T08:14:29.047Z,69.23
2018-12-18T08:15:28.940Z,69.61
2018-12-18T08:16:28.843Z,69.04
2018-12-18T08:17:28.739Z,69.13
2018-12-18T08:18:28.627Z,69.55
2018-12-18T08:19:28.516Z,69.42
2018-12-18T08:20:28.410Z,69.61
2018-12-18T08:21:28.305Z,69.93
2018-12-18T08:22:28.206Z,69.99
2018-12-18T08:23:28.096Z,69.93
2018-12-18T08:24:27.993Z,70.12
2018-12-18T08:25:27.881Z,70.31
2018-12-18T08:26:27.782Z,70.50
2018-12-18T08:27:27.670Z,70.69
2018-12-18T08:28:27.569Z,71.07
2018-12-18T08:29:27.459Z,71.55
2018-12-18T08:30:27.418Z,71.55
2018-12-18T08:31:27.247Z,72.21
2018-12-18T08:32:27.147Z,72.21
2018-12-18T08:33:27.036Z,72.49
2018-12-18T08:34:26.937Z,72.30
2018-12-18T08:35:26.823Z,72.40
2018-12-18T08:36:26.737Z,72.11
2018-12-18T08:37:26.913Z,72.68
2018-12-18T08:38:26.514Z,72.40
2018-12-18T08:39:26.401Z,72.49
2018-12-18T08:40:26.301Z,72.21
2018-12-18T08:41:26.193Z,72.78
2018-12-18T08:42:26.092Z,72.78
2018-12-18T08:43:25.978Z,72.88
2018-12-18T08:44:25.879Z,72.78
2018-12-18T08:45:25.770Z,73.25
2018-12-18T08:46:25.668Z,73.63
2018-12-18T08:47:25.556Z,74.20
2018-12-18T08:48:25.468Z,74.49
2018-12-18T08:49:25.345Z,74.39
2018-12-18T08:50:25.245Z,74.68
2018-12-18T08:51:25.133Z,75.34
2018-12-18T08:52:25.033Z,74.49
2018-12-18T08:53:24.923Z,75.81
2018-12-18T08:54:24.814Z,75.91
2018-12-18T08:55:24.706Z,76.29
2018-12-18T08:56:24.601Z,76.20
2018-12-18T08:57:24.496Z,76.76
2018-12-18T08:58:24.392Z,76.48
2018-12-18T08:59:24.288Z,76.39
2018-12-18T09:00:24.179Z,76.67
2018-12-18T09:01:24.073Z,76.95
2018-12-18T09:02:23.969Z,76.57
2018-12-18T09:03:23.864Z,76.57
2018-12-18T09:04:23.765Z,76.39
2018-12-18T09:05:23.662Z,77.24
2018-12-18T09:06:23.554Z,78.09
2018-12-18T09:07:23.441Z,78.23
2018-12-18T09:08:23.343Z,78.47
2018-12-18T09:09:23.230Z,78.95
2018-12-18T09:10:23.124Z,78.75
2018-12-18T09:11:23.019Z,79.55
2018-12-18T09:12:22.915Z,79.27
2018-12-18T09:13:22.819Z,79.55
2018-12-18T09:14:22.708Z,79.74
2018-12-18T09:15:22.596Z,79.55
2018-12-18T09:16:22.497Z,79.55
2018-12-18T09:17:22.398Z,80.32
2018-12-18T09:18:22.287Z,80.69
2018-12-18T09:19:22.186Z,82.12
2018-12-18T09:20:22.073Z,81.65
2018-12-18T09:21:21.966Z,81.55
2018-12-18T09:22:21.861Z,81.74
2018-12-18T09:23:21.763Z,82.31
2018-12-18T09:24:21.652Z,82.78
2018-12-18T09:25:21.553Z,82.03
2018-12-18T09:26:21.443Z,82.59
2018-12-18T09:27:21.333Z,82.59
2018-12-18T09:28:21.229Z,82.78
2018-12-18T09:29:21.128Z,82.59
2018-12-18T09:30:21.032Z,83.64
2018-12-18T09:31:20.917Z,83.16
2018-12-18T09:32:20.819Z,83.83
2018-12-18T09:33:20.705Z,83.83
2018-12-18T09:34:20.606Z,83.54
2018-12-18T09:35:20.494Z,83.92
2018-12-18T09:36:20.388Z,83.16
2018-12-18T09:37:20.282Z,83.83
2018-12-18T09:38:20.183Z,84.11
2018-12-18T09:39:20.072Z,84.49
2018-12-18T09:40:19.974Z,84.01
2018-12-18T09:41:19.874Z,84.87
2018-12-18T09:42:19.762Z,85.44
2018-12-18T09:43:19.661Z,85.35
2018-12-18T09:44:19.550Z,84.78
2018-12-18T09:45:19.450Z,85.06
2018-12-18T09:46:19.338Z,85.91
2018-12-18T09:47:19.243Z,86.05
2018-12-18T09:48:19.127Z,86.63
2018-12-18T09:49:19.022Z,86.63
2018-12-18T09:50:18.917Z,86.63
2018-12-18T09:51:18.816Z,86.91
2018-12-18T09:52:18.707Z,87.01
2018-12-18T09:53:18.606Z,87.76
2018-12-18T09:54:18.497Z,87.38
2018-12-18T09:55:18.404Z,87.19
2018-12-18T09:56:18.297Z,87.19
2018-12-18T09:57:18.182Z,87.19
2018-12-18T09:58:18.084Z,86.53
2018-12-18T09:59:17.983Z,86.53
2018-12-18T10:00:17.871Z,87.01
2018-12-18T10:01:17.772Z,88.05
2018-12-18T10:02:17.659Z,87.76
2018-12-18T10:03:17.553Z,87.38
2018-12-18T10:04:17.452Z,88.24
2018-12-18T10:05:17.349Z,88.71
2018-12-18T10:06:17.249Z,89.95
2018-12-18T10:07:17.138Z,88.71
2018-12-18T10:08:17.038Z,88.62
2018-12-18T10:09:16.926Z,88.43
2018-12-18T10:10:16.826Z,89.19
2018-12-18T10:11:16.722Z,88.90
2018-12-18T10:12:16.615Z,87.95
2018-12-18T10:13:16.520Z,88.43
2018-12-18T10:14:16.404Z,89.95
2018-12-18T10:15:16.297Z,89.57
2018-12-18T10:16:16.193Z,90.14
2018-12-18T10:17:16.093Z,89.67
2018-12-18T10:18:15.995Z,88.43
2018-12-18T10:19:15.882Z,88.53
2018-12-18T10:20:15.782Z,88.53
2018-12-18T10:21:15.671Z,88.15
2018-12-18T10:22:15.571Z,88.53
2018-12-18T10:23:15.471Z,88.53
2018-12-18T10:24:16.560Z,88.90
2018-12-18T10:25:15.266Z,88.53
2018-12-18T10:26:15.150Z,87.86
2018-12-18T10:27:15.050Z,88.05
2018-12-18T10:28:14.949Z,88.34
2018-12-18T10:29:14.838Z,88.15
2018-12-18T10:30:14.740Z,87.86
2018-12-18T10:31:14.627Z,88.24
2018-12-18T10:32:14.527Z,88.34
2018-12-18T10:33:14.429Z,88.53
2018-12-18T10:34:14.311Z,87.95
2018-12-18T10:35:14.282Z,88.71
2018-12-18T10:36:14.102Z,89.47
2018-12-18T10:37:14.005Z,89.47
2018-12-18T10:38:13.896Z,89.67
2018-12-18T10:39:13.792Z,89.38
2018-12-18T10:40:13.694Z,89.00
2018-12-18T10:41:13.581Z,89.57
2018-12-18T10:42:13.482Z,89.86
2018-12-18T10:43:13.410Z,90.52
2018-12-18T10:44:13.326Z,90.52
2018-12-18T10:45:13.802Z,90.90
2018-12-18T10:46:13.062Z,91.19
2018-12-18T10:47:12.966Z,92.23
2018-12-18T10:48:12.848Z,92.51
2018-12-18T10:49:12.748Z,91.75
2018-12-18T10:50:12.650Z,90.99
2018-12-18T10:51:12.537Z,91.85
2018-12-18T10:52:12.439Z,91.75
2018-12-18T10:53:12.325Z,92.42
2018-12-18T10:54:12.226Z,90.99
2018-12-18T10:55:12.127Z,91.28
2018-12-18T10:56:12.016Z,91.75
2018-12-18T10:57:11.916Z,91.85
2018-12-18T10:58:11.804Z,91.89
2018-12-18T10:59:11.704Z,92.66
2018-12-18T11:00:11.604Z,92.51
2018-12-18T11:01:11.551Z,92.37
2018-12-18T11:02:11.386Z,92.66
2018-12-18T11:03:11.282Z,92.94
2018-12-18T11:04:11.177Z,93.51
2018-12-18T11:05:11.082Z,93.23
2018-12-18T11:06:10.972Z,93.79
2018-12-18T11:07:10.876Z,93.51
2018-12-18T11:08:10.761Z,93.41
2018-12-18T11:09:10.660Z,93.41
2018-12-18T11:10:10.560Z,93.79
2018-12-18T11:11:10.449Z,93.70
2018-12-18T11:12:10.349Z,93.51
2018-12-18T11:13:10.252Z,94.46
2018-12-18T11:14:10.136Z,94.37
2018-12-18T11:15:10.038Z,94.56
2018-12-18T11:16:09.927Z,95.22
2018-12-18T11:17:09.823Z,94.74
2018-12-18T11:18:09.720Z,94.27
2018-12-18T11:19:09.615Z,95.32
2018-12-18T11:20:09.516Z,95.12
2018-12-18T11:21:09.416Z,95.12
2018-12-18T11:22:09.306Z,94.93
2018-12-18T11:23:09.205Z,95.51
2018-12-18T11:24:09.096Z,96.17
2018-12-18T11:25:08.990Z,96.17
2018-12-18T11:26:08.895Z,95.98
2018-12-18T11:27:08.787Z,95.70
2018-12-18T11:28:08.688Z,95.98
2018-12-18T11:29:08.586Z,96.08
2018-12-18T11:30:08.472Z,95.89
2018-12-18T11:31:08.374Z,96.65
2018-12-18T11:32:09.497Z,96.65
2018-12-18T11:33:08.161Z,96.45
2018-12-18T11:34:08.062Z,95.79
2018-12-18T11:35:07.950Z,95.79
2018-12-18T11:36:07.854Z,95.41
2018-12-18T11:37:07.762Z,95.84
2018-12-18T11:38:07.652Z,96.41
2018-12-18T11:39:07.535Z,97.64
2018-12-18T11:40:07.432Z,96.60
2018-12-18T11:41:07.328Z,98.03
2018-12-18T11:42:07.230Z,96.89
2018-12-18T11:43:07.129Z,97.93
2018-12-18T11:44:07.019Z,96.03
2018-12-18T11:45:06.918Z,95.70
2018-12-18T11:46:06.811Z,95.98
2018-12-18T11:47:06.705Z,95.41
2018-12-18T11:48:06.602Z,95.60
2018-12-18T11:49:06.507Z,95.79
2018-12-18T11:50:06.397Z,95.70
2018-12-18T11:51:06.297Z,95.70
2018-12-18T11:52:06.198Z,95.12
2018-12-18T11:53:06.085Z,95.60
2018-12-18T11:54:05.985Z,95.98
2018-12-18T11:55:05.886Z,95.51
2018-12-18T11:56:05.774Z,94.84
2018-12-18T11:57:05.674Z,95.51
2018-12-18T11:58:05.575Z,95.41
2018-12-18T11:59:05.463Z,95.12
2018-12-18T12:00:05.364Z,94.74
2018-12-18T12:01:05.254Z,94.08
2018-12-18T12:02:05.155Z,94.08
2018-12-18T12:03:05.053Z,93.27
2018-12-18T12:04:04.941Z,93.46
2018-12-18T12:05:04.841Z,92.99
2018-12-18T12:06:04.733Z,92.71
2018-12-18T12:07:04.630Z,92.71
2018-12-18T12:08:04.531Z,92.80
2018-12-18T12:09:04.433Z,92.23
2018-12-18T12:10:04.322Z,92.42
2018-12-18T12:11:04.211Z,91.75
2018-12-18T12:12:04.107Z,92.13
2018-12-18T12:13:04.004Z,90.61
2018-12-18T12:14:03.910Z,90.66
2018-12-18T12:15:03.794Z,90.76
2018-12-18T12:16:03.698Z,90.00
2018-12-18T12:17:03.587Z,89.14
2018-12-18T12:18:03.486Z,88.48
2018-12-18T12:19:03.387Z,88.57
2018-12-18T12:20:03.278Z,88.76
2018-12-18T12:21:03.167Z,87.91
2018-12-18T12:22:03.063Z,87.91
2018-12-18T12:23:02.966Z,88.20
2018-12-18T12:24:02.853Z,86.96
2018-12-18T12:25:02.754Z,86.87
2018-12-18T12:26:02.653Z,86.77
2018-12-18T12:27:02.543Z,86.01
2018-12-18T12:28:02.443Z,84.59
2018-12-18T12:29:02.331Z,84.49
2018-12-18T12:30:02.237Z,84.78
2018-12-18T12:31:02.132Z,85.06
2018-12-18T12:32:02.019Z,85.63
2018-12-18T12:33:01.911Z,85.35
2018-12-18T12:34:01.806Z,85.53
2018-12-18T12:35:01.713Z,86.20
2018-12-18T12:36:01.598Z,86.43
2018-12-18T12:37:01.494Z,86.63
2018-12-18T12:38:01.398Z,87.57
2018-12-18T12:39:01.284Z,87.67
2018-12-18T12:40:01.186Z,88.71
2018-12-18T12:41:01.074Z,88.15
2018-12-18T12:42:00.975Z,88.71
2018-12-18T12:43:00.864Z,89.67
2018-12-18T12:44:00.763Z,90.05
2018-12-18T12:45:00.663Z,90.80
2018-12-18T12:46:00.553Z,91.19
2018-12-18T12:47:00.453Z,91.56
2018-12-18T12:48:00.415Z,90.80
2018-12-18T12:49:00.242Z,90.42
2018-12-18T12:50:00.142Z,90.90
2018-12-18T12:51:00.030Z,90.99